Time;durP1;ratioP1;P1;durP2;ratioP2;P2;SDS_P1;SDS_P2;PMS_P1;PMS_P2;Temp;Humidity;BMP_temperature;BMP_pressure;BME280_temperature;BME280_humidity;BME280_pressure;Samples;Min_cycle;Max_cycle;Signal;HPM_P1;HPM_P2
2023/05/18 00:00:54;;;;;;;5.90;1.27;;;;;;;7.22;83.25;102150.63;5055954;28;20473;-70
2023/05/18 00:03:21;;;;;;;8.80;2.40;;;;;;;7.27;82.98;102156.13;5056261;28;20442;-70
2023/05/18 00:05:48;;;;;;;6.70;1.73;;;;;;;7.19;83.67;102151.09;5056216;28;20489;-70
2023/05/18 00:08:16;;;;;;;6.23;1.30;;;;;;;7.21;84.05;102158.94;5055733;28;20500;-70
2023/05/18 00:10:42;;;;;;;5.23;1.27;;;;;;;7.27;83.89;102166.91;5056084;28;20463;-70
2023/05/18 00:13:09;;;;;;;6.40;1.37;;;;;;;7.33;83.79;102170.50;5055703;28;20453;-70
2023/05/18 00:15:35;;;;;;;7.80;1.97;;;;;;;7.23;84.69;102165.75;5056114;28;20446;-70
2023/05/18 00:18:02;;;;;;;9.70;2.07;;;;;;;7.29;84.54;102162.06;5055879;28;20509;-70
2023/05/18 00:20:29;;;;;;;8.40;1.60;;;;;;;7.23;84.58;102168.44;5055833;28;20485;-70
2023/05/18 00:22:55;;;;;;;6.37;1.50;;;;;;;7.24;84.89;102174.63;5055854;28;20867;-69
2023/05/18 00:25:23;;;;;;;9.17;1.80;;;;;;;7.27;84.57;102179.56;5055730;28;20970;-70
2023/05/18 00:27:50;;;;;;;6.80;1.70;;;;;;;7.16;84.95;102180.41;5055553;28;20453;-70
2023/05/18 00:30:17;;;;;;;10.30;1.90;;;;;;;7.25;84.45;102174.38;5055642;28;20484;-70
2023/05/18 00:32:44;;;;;;;6.17;1.87;;;;;;;7.13;84.71;102184.41;5055372;28;20453;-70
2023/05/18 00:35:10;;;;;;;5.70;1.80;;;;;;;7.23;84.49;102179.22;5055591;28;20450;-70
2023/05/18 00:37:37;;;;;;;5.77;1.57;;;;;;;7.19;84.22;102180.75;5055296;28;20923;-70
2023/05/18 00:40:05;;;;;;;7.43;2.10;;;;;;;7.10;83.76;102173.28;5055401;28;20577;-70
2023/05/18 00:42:33;;;;;;;7.43;1.50;;;;;;;7.01;82.41;102183.59;5055774;28;20442;-70
2023/05/18 00:45:00;;;;;;;7.27;1.93;;;;;;;7.07;82.14;102185.34;5055594;28;20438;-70
2023/05/18 00:47:26;;;;;;;4.93;1.27;;;;;;;6.96;82.25;102178.13;5055406;28;20448;-70
2023/05/18 00:49:53;;;;;;;7.17;1.70;;;;;;;6.86;82.74;102177.88;5055273;28;20535;-70
2023/05/18 00:52:21;;;;;;;5.93;1.60;;;;;;;6.88;82.56;102175.78;5055310;28;20449;-70
2023/05/18 00:54:47;;;;;;;6.00;1.80;;;;;;;6.88;82.19;102183.88;5054992;28;20445;-69
2023/05/18 00:57:14;;;;;;;9.30;2.07;;;;;;;6.77;81.02;102193.56;5055206;28;20536;-69
2023/05/18 00:59:42;;;;;;;7.20;1.50;;;;;;;6.78;83.33;102196.06;5054622;28;20885;-69
2023/05/18 01:02:10;;;;;;;6.63;1.80;;;;;;;6.85;83.93;102192.41;5054987;28;20454;-69
2023/05/18 01:04:40;;;;;;;8.53;2.23;;;;;;;6.82;84.52;102196.41;5054916;28;20449;-69
2023/05/18 01:07:07;;;;;;;5.60;1.67;;;;;;;6.87;84.17;102193.00;5054685;28;20501;-69
2023/05/18 01:09:34;;;;;;;6.63;1.67;;;;;;;6.86;84.41;102200.25;5054586;28;20458;-69
2023/05/18 01:12:11;;;;;;;9.63;2.30;;;;;;;6.89;84.61;102199.78;5054630;28;20448;-69
2023/05/18 01:14:48;;;;;;;7.60;2.30;;;;;;;6.86;85.22;102191.34;5054967;28;20517;-69
2023/05/18 01:17:25;;;;;;;7.87;2.33;;;;;;;6.87;85.15;102201.91;5054599;28;20438;-69
2023/05/18 01:20:19;;;;;;;8.87;2.40;;;;;;;6.80;85.60;102203.88;5054710;28;20488;-69
2023/05/18 01:23:36;;;;;;;11.30;3.03;;;;;;;6.78;85.82;102201.44;5054451;28;20933;-69
2023/05/18 01:26:28;;;;;;;8.43;2.70;;;;;;;6.83;85.67;102204.25;5012623;28;20459;-69
2023/05/18 01:28:56;;;;;;;11.00;2.77;;;;;;;6.77;85.49;102205.19;5054532;28;21006;-69
2023/05/18 01:31:23;;;;;;;7.77;2.83;;;;;;;6.70;86.37;102199.09;5054582;28;20533;-69
2023/05/18 01:33:50;;;;;;;15.53;3.40;;;;;;;6.67;86.45;102202.25;5054592;28;20525;-69
2023/05/18 01:36:16;;;;;;;10.87;3.27;;;;;;;6.67;86.47;102206.81;5054615;28;20448;-69
2023/05/18 01:38:44;;;;;;;9.57;3.80;;;;;;;6.67;86.27;102207.63;5053957;28;21097;-69
2023/05/18 01:41:18;;;;;;;14.90;4.10;;;;;;;6.70;86.11;102211.75;5054384;28;20495;-69
2023/05/18 01:43:52;;;;;;;17.47;5.13;;;;;;;6.68;86.36;102206.56;5054513;28;20509;-69
2023/05/18 01:46:26;;;;;;;19.67;5.80;;;;;;;6.66;85.97;102205.19;5054288;28;20473;-69
2023/05/18 01:48:56;;;;;;;17.20;5.77;;;;;;;6.60;86.10;102196.19;5053903;28;20492;-69
2023/05/18 01:51:30;;;;;;;13.57;5.43;;;;;;;6.53;85.79;102204.38;5054228;28;20478;-69
2023/05/18 01:54:00;;;;;;;9.63;4.10;;;;;;;6.51;85.05;102193.03;5054208;28;20484;-69
2023/05/18 01:56:27;;;;;;;9.87;4.43;;;;;;;6.49;83.97;102199.69;5053815;28;20988;-69
2023/05/18 01:58:57;;;;;;;10.97;3.47;;;;;;;6.37;83.29;102210.44;5053585;28;20485;-69
2023/05/18 02:01:24;;;;;;;12.30;3.93;;;;;;;6.35;83.04;102215.25;5053628;28;20939;-69
2023/05/18 02:03:51;;;;;;;9.27;3.60;;;;;;;6.32;83.39;102213.81;5053641;28;20504;-70
2023/05/18 02:06:17;;;;;;;10.20;3.80;;;;;;;6.26;83.61;102217.44;5054122;28;20443;-70
2023/05/18 02:08:44;;;;;;;9.53;2.63;;;;;;;6.24;83.08;102208.81;5053426;28;20541;-71
2023/05/18 02:11:11;;;;;;;8.27;2.93;;;;;;;6.25;84.42;102209.63;5053473;28;20450;-70
2023/05/18 02:13:37;;;;;;;9.30;3.40;;;;;;;6.22;85.46;102210.88;5053494;28;20448;-71
2023/05/18 02:16:06;;;;;;;8.77;3.50;;;;;;;6.17;86.76;102216.16;5053767;28;20438;-71
2023/05/18 02:18:35;;;;;;;9.10;3.00;;;;;;;6.24;86.62;102216.03;5052879;28;20620;-71
2023/05/18 02:21:02;;;;;;;8.10;2.80;;;;;;;6.35;86.09;102220.63;5053654;28;20450;-70
2023/05/18 02:23:30;;;;;;;7.83;3.10;;;;;;;6.17;87.07;102218.84;5053539;28;20457;-70
2023/05/18 02:25:56;;;;;;;8.33;2.60;;;;;;;6.06;87.53;102216.94;5053551;28;20537;-70
2023/05/18 02:28:23;;;;;;;7.50;2.70;;;;;;;6.01;87.95;102219.50;5053609;28;20442;-70
2023/05/18 02:30:50;;;;;;;10.37;3.30;;;;;;;5.91;88.36;102209.25;5053156;28;21033;-70
2023/05/18 02:33:18;;;;;;;8.00;2.47;;;;;;;5.96;88.25;102219.38;5053147;28;20442;-71
2023/05/18 02:35:45;;;;;;;8.00;2.87;;;;;;;5.96;88.00;102220.19;5053120;28;20481;-71
2023/05/18 02:38:12;;;;;;;9.23;3.30;;;;;;;5.93;88.15;102217.13;5053409;28;20896;-71
2023/05/18 02:40:38;;;;;;;9.33;3.40;;;;;;;6.11;87.23;102227.00;5052956;28;20517;-70
2023/05/18 02:43:05;;;;;;;7.63;3.03;;;;;;;6.18;86.51;102225.84;5053263;28;20450;-70
2023/05/18 02:45:31;;;;;;;7.93;3.20;;;;;;;6.09;87.19;102229.94;5052997;28;20524;-70
2023/05/18 02:47:58;;;;;;;7.10;2.73;;;;;;;5.89;88.23;102234.72;5053288;28;20466;-70
2023/05/18 02:50:26;;;;;;;8.33;3.67;;;;;;;5.95;87.71;102234.69;5053096;28;20545;-70
2023/05/18 02:52:53;;;;;;;10.80;4.87;;;;;;;5.93;87.53;102242.19;5053209;28;20533;-69
2023/05/18 02:55:19;;;;;;;15.63;3.97;;;;;;;5.90;87.41;102229.16;5053251;28;20453;-69
2023/05/18 02:57:47;;;;;;;14.57;4.80;;;;;;;5.89;87.09;102238.28;5053074;28;20860;-69
2023/05/18 03:00:15;;;;;;;8.70;3.93;;;;;;;5.77;85.31;102238.22;5052910;28;20482;-69
2023/05/18 03:02:43;;;;;;;14.80;5.07;;;;;;;5.74;85.88;102233.28;5053113;28;20855;-69
2023/05/18 03:05:09;;;;;;;10.30;4.67;;;;;;;5.69;85.73;102240.41;5053108;28;20891;-69
2023/05/18 03:07:37;;;;;;;10.17;4.33;;;;;;;5.54;86.53;102238.13;5052721;28;20901;-69
2023/05/18 03:10:06;;;;;;;12.77;4.13;;;;;;;5.55;86.38;102239.75;5053168;28;20454;-69
2023/05/18 03:12:33;;;;;;;12.87;4.03;;;;;;;5.52;86.01;102242.88;5052945;28;20446;-69
2023/05/18 03:14:59;;;;;;;10.73;3.67;;;;;;;5.52;86.46;102238.31;5053026;28;20584;-69
2023/05/18 03:17:26;;;;;;;10.17;4.70;;;;;;;5.56;86.10;102241.38;5052860;28;20541;-69
2023/05/18 03:19:52;;;;;;;10.50;3.90;;;;;;;5.52;86.66;102242.88;5052792;28;20528;-69
2023/05/18 03:22:19;;;;;;;16.90;3.77;;;;;;;5.47;87.34;102238.19;5052883;28;20445;-69
2023/05/18 03:24:50;;;;;;;12.50;5.17;;;;;;;5.40;88.59;102240.16;5052706;28;21014;-69
2023/05/18 03:27:17;;;;;;;15.40;4.43;;;;;;;5.41;88.43;102236.41;5053131;28;20529;-69
2023/05/18 03:29:44;;;;;;;13.30;5.20;;;;;;;5.37;88.71;102239.78;5055645;28;20596;-69
2023/05/18 03:32:11;;;;;;;11.13;4.83;;;;;;;5.44;88.82;102237.81;5056449;28;20816;-70
2023/05/18 03:34:37;;;;;;;13.37;4.40;;;;;;;5.44;89.26;102241.31;5056811;28;20442;-74
2023/05/18 03:37:04;;;;;;;16.20;4.70;;;;;;;5.41;89.69;102244.47;5056760;28;20450;-69
2023/05/18 03:39:31;;;;;;;14.47;4.67;;;;;;;5.51;89.23;102233.19;5056580;28;20500;-70
2023/05/18 03:41:59;;;;;;;13.47;4.53;;;;;;;5.54;88.95;102241.63;5056649;28;20452;-69
2023/05/18 03:44:26;;;;;;;7.50;3.33;;;;;;;5.54;89.02;102241.63;5056642;28;20476;-70
2023/05/18 03:46:52;;;;;;;11.43;4.03;;;;;;;5.64;88.79;102251.84;5056267;28;20438;-70
2023/05/18 03:49:19;;;;;;;8.50;3.70;;;;;;;5.60;89.69;102250.63;5056063;28;20550;-69
2023/05/18 03:51:46;;;;;;;8.80;3.60;;;;;;;5.64;89.62;102253.72;5056475;28;20492;-70
2023/05/18 03:54:12;;;;;;;9.43;3.73;;;;;;;5.75;89.65;102259.13;5056430;28;20452;-69
2023/05/18 03:56:39;;;;;;;9.07;3.50;;;;;;;5.90;88.94;102265.97;5056359;28;20568;-70
2023/05/18 03:59:08;;;;;;;10.67;4.03;;;;;;;5.78;90.01;102266.72;5056150;28;20516;-69
2023/05/18 04:01:34;;;;;;;9.77;3.97;;;;;;;5.77;90.57;102265.09;5055939;28;20927;-69
2023/05/18 04:04:01;;;;;;;10.13;3.60;;;;;;;5.78;90.50;102264.03;5056444;28;20559;-69
2023/05/18 04:06:27;;;;;;;13.27;3.30;;;;;;;5.88;89.92;102270.75;5055768;28;20981;-70
2023/05/18 04:08:54;;;;;;;8.77;3.10;;;;;;;5.92;89.12;102266.59;5056090;28;20450;-69
2023/05/18 04:11:21;;;;;;;7.23;2.70;;;;;;;5.92;88.12;102262.03;5056097;28;20465;-70
2023/05/18 04:13:48;;;;;;;8.33;3.63;;;;;;;5.92;86.83;102264.72;5056043;28;20449;-70
2023/05/18 04:16:17;;;;;;;7.53;2.80;;;;;;;5.92;87.01;102261.22;5055980;28;20446;-70
2023/05/18 04:18:43;;;;;;;11.83;2.93;;;;;;;5.95;87.46;102271.53;5055570;28;20446;-70
2023/05/18 04:21:10;;;;;;;6.13;2.13;;;;;;;6.09;86.55;102270.28;5055904;28;20853;-70
2023/05/18 04:23:37;;;;;;;7.80;2.33;;;;;;;6.14;86.30;102262.34;5055575;28;20823;-70
2023/05/18 04:26:05;;;;;;;8.07;3.10;;;;;;;6.25;85.98;102274.19;5055528;28;20446;-70
2023/05/18 04:28:32;;;;;;;12.00;2.70;;;;;;;6.22;87.26;102274.66;5055679;28;20829;-70
2023/05/18 04:31:00;;;;;;;7.20;2.30;;;;;;;6.33;87.74;102279.25;5055434;28;20499;-69
2023/05/18 04:33:28;;;;;;;13.10;3.03;;;;;;;6.40;89.10;102276.44;5055293;28;21009;-70
2023/05/18 04:35:57;;;;;;;7.30;2.40;;;;;;;6.52;88.34;102283.50;5055374;28;20442;-70
2023/05/18 04:38:24;;;;;;;9.67;2.50;;;;;;;6.62;88.32;102279.41;5055233;28;20442;-70
2023/05/18 04:40:51;;;;;;;7.80;1.80;;;;;;;6.74;87.73;102286.44;5054645;28;20485;-69
2023/05/18 04:43:18;;;;;;;6.67;2.20;;;;;;;6.86;87.36;102294.50;5055132;28;21016;-70
2023/05/18 04:45:45;;;;;;;5.90;1.77;;;;;;;6.96;86.62;102289.38;5055706;28;20446;-69
2023/05/18 04:48:13;;;;;;;7.23;1.90;;;;;;;6.96;86.96;102296.63;5055070;28;20970;-69
2023/05/18 04:50:40;;;;;;;7.03;2.20;;;;;;;7.04;87.37;102301.69;5055297;28;20498;-68
2023/05/18 04:53:07;;;;;;;5.47;1.83;;;;;;;7.05;88.07;102304.13;5054979;28;20455;-70
2023/05/18 04:55:34;;;;;;;11.40;2.60;;;;;;;7.18;87.80;102300.38;5054911;28;20954;-69
2023/05/18 04:58:01;;;;;;;6.30;1.80;;;;;;;7.29;88.02;102296.84;5054943;28;20978;-70
2023/05/18 05:00:29;;;;;;;5.27;1.50;;;;;;;7.45;87.52;102305.25;5054713;28;20923;-69
2023/05/18 05:02:57;;;;;;;6.50;1.90;;;;;;;7.46;88.15;102304.19;5054843;28;20448;-70
2023/05/18 05:05:24;;;;;;;5.37;1.40;;;;;;;7.47;88.28;102309.34;5055030;28;20525;-70
2023/05/18 05:07:54;;;;;;;7.43;1.47;;;;;;;7.57;88.03;102311.47;5054719;28;20545;-75
2023/05/18 05:10:21;;;;;;;9.33;1.53;;;;;;;7.69;88.35;102312.22;5054923;28;20463;-70
2023/05/18 05:12:49;;;;;;;5.23;1.40;;;;;;;7.77;88.15;102302.94;5054944;28;20442;-69
2023/05/18 05:15:16;;;;;;;9.33;1.67;;;;;;;7.83;88.03;102304.69;5054820;28;20446;-69
2023/05/18 05:17:42;;;;;;;4.90;1.30;;;;;;;7.99;87.17;102301.22;5054812;28;20442;-69
2023/05/18 05:20:09;;;;;;;9.00;1.53;;;;;;;8.12;87.34;102302.81;5054642;28;20486;-70
2023/05/18 05:22:36;;;;;;;6.53;1.70;;;;;;;8.24;87.12;102302.75;5054761;28;20564;-71
2023/05/18 05:25:04;;;;;;;11.63;2.53;;;;;;;8.33;86.52;102306.69;5054740;28;20816;-70
2023/05/18 05:27:31;;;;;;;7.90;1.17;;;;;;;8.43;86.00;102306.09;5054579;28;21075;-69
2023/05/18 05:29:58;;;;;;;5.30;1.30;;;;;;;8.54;85.16;102302.47;5054693;28;20489;-69
2023/05/18 05:32:24;;;;;;;11.77;2.27;;;;;;;8.61;84.54;102303.16;5054643;28;20539;-69
2023/05/18 05:34:51;;;;;;;7.17;1.10;;;;;;;8.68;84.06;102303.00;5054208;28;20478;-68
2023/05/18 05:37:18;;;;;;;9.53;1.40;;;;;;;8.83;83.37;102301.34;5054446;28;20442;-68
2023/05/18 05:39:45;;;;;;;10.60;1.80;;;;;;;8.92;82.85;102314.44;5054299;28;20486;-68
2023/05/18 05:42:14;;;;;;;6.63;1.60;;;;;;;9.03;83.10;102310.81;5054602;28;20445;-68
2023/05/18 05:44:40;;;;;;;9.10;1.70;;;;;;;9.07;82.55;102312.78;5054268;28;20430;-68
2023/05/18 05:47:07;;;;;;;5.17;1.13;;;;;;;9.18;81.84;102319.16;5054267;28;20520;-68
2023/05/18 05:49:34;;;;;;;8.67;1.70;;;;;;;9.30;82.22;102325.28;5054134;28;20476;-68
2023/05/18 05:52:01;;;;;;;9.10;1.73;;;;;;;9.39;82.17;102319.44;5053124;28;20810;-68
2023/05/18 05:54:27;;;;;;;5.77;1.30;;;;;;;9.46;82.23;102329.00;5055190;28;20990;-68
2023/05/18 05:56:54;;;;;;;7.47;1.40;;;;;;;9.54;82.54;102330.47;5054078;28;20454;-68
2023/05/18 05:59:22;;;;;;;7.00;1.50;;;;;;;9.71;82.39;102331.22;5053930;28;20469;-69
2023/05/18 06:01:49;;;;;;;5.40;1.50;;;;;;;9.82;81.88;102335.66;5053950;28;20573;-70
2023/05/18 06:04:15;;;;;;;8.73;1.80;;;;;;;9.93;80.98;102342.03;5053978;28;20445;-70
2023/05/18 06:06:42;;;;;;;6.93;1.47;;;;;;;10.02;80.36;102335.09;5053459;28;20446;-70
2023/05/18 06:09:09;;;;;;;16.43;1.90;;;;;;;10.10;79.12;102331.13;5053703;28;20860;-70
2023/05/18 06:11:36;;;;;;;6.40;1.20;;;;;;;10.16;78.67;102335.50;5053811;28;20469;-69
2023/05/18 06:14:03;;;;;;;6.17;1.50;;;;;;;10.30;78.92;102336.75;5053798;28;20478;-69
2023/05/18 06:16:31;;;;;;;6.60;1.90;;;;;;;10.34;77.81;102327.06;5053658;28;20442;-69
2023/05/18 06:18:57;;;;;;;5.33;1.27;;;;;;;10.39;77.98;102326.28;5053651;28;20537;-69
2023/05/18 06:21:24;;;;;;;7.33;1.70;;;;;;;10.49;78.16;102328.28;5053517;28;20504;-69
2023/05/18 06:23:50;;;;;;;10.07;1.77;;;;;;;10.57;76.84;102330.50;5053612;28;20529;-69
2023/05/18 06:26:17;;;;;;;5.83;1.10;;;;;;;10.70;76.24;102326.56;5053213;28;21046;-69
2023/05/18 06:28:43;;;;;;;11.10;1.27;;;;;;;10.79;75.89;102323.09;5053145;28;20972;-70
2023/05/18 06:31:11;;;;;;;5.70;1.17;;;;;;;10.74;72.77;102325.78;5053385;28;20940;-70
2023/05/18 06:33:39;;;;;;;8.27;1.30;;;;;;;10.88;72.83;102331.56;5053474;28;20465;-69
2023/05/18 06:36:06;;;;;;;7.17;1.80;;;;;;;10.92;75.14;102331.88;5053089;28;20818;-69
2023/05/18 06:38:33;;;;;;;5.83;1.20;;;;;;;11.04;75.73;102330.63;5053307;28;20441;-70
2023/05/18 06:40:59;;;;;;;6.67;0.90;;;;;;;11.03;73.12;102329.00;5053237;28;20478;-69
2023/05/18 06:43:27;;;;;;;5.73;0.97;;;;;;;11.14;72.25;102334.47;5053225;28;20438;-69
2023/05/18 06:45:54;;;;;;;8.33;1.30;;;;;;;11.24;71.18;102329.91;5053309;28;20446;-69
2023/05/18 06:48:22;;;;;;;16.30;1.47;;;;;;;11.19;71.15;102329.88;5053432;28;20437;-70
2023/05/18 06:50:50;;;;;;;8.10;1.47;;;;;;;11.30;71.56;102342.44;5053098;28;20466;-69
2023/05/18 06:53:16;;;;;;;6.50;1.50;;;;;;;11.36;70.48;102340.56;5053139;28;20794;-70
2023/05/18 06:55:43;;;;;;;8.80;1.07;;;;;;;11.41;69.12;102346.03;5053175;28;20496;-69
2023/05/18 06:58:09;;;;;;;4.90;1.07;;;;;;;11.39;68.17;102345.47;5052822;28;20474;-70
2023/05/18 07:00:36;;;;;;;4.83;0.70;;;;;;;11.31;68.48;102340.53;5052956;28;20486;-69
2023/05/18 07:03:03;;;;;;;7.40;1.33;;;;;;;11.31;68.69;102344.06;5052382;28;20530;-70
2023/05/18 07:05:30;;;;;;;6.75;1.35;;;;;;;11.40;67.83;102344.41;5052915;28;20419;-69
2023/05/18 07:07:58;;;;;;;6.10;1.10;;;;;;;11.53;68.19;102348.53;5052799;28;20695;-68
2023/05/18 07:10:25;;;;;;;5.90;1.20;;;;;;;11.60;68.40;102344.50;5052858;28;20462;-68
2023/05/18 07:12:51;;;;;;;5.33;1.17;;;;;;;11.75;68.93;102335.59;5053001;28;20454;-69
2023/05/18 07:15:18;;;;;;;5.63;1.27;;;;;;;11.94;69.39;102337.88;5053263;28;20438;-69
2023/05/18 07:17:45;;;;;;;5.40;1.23;;;;;;;12.08;69.87;102333.56;5052927;28;20521;-69
2023/05/18 07:20:12;;;;;;;5.70;1.27;;;;;;;12.18;69.26;102330.88;5052813;28;20488;-69
2023/05/18 07:22:38;;;;;;;5.50;1.03;;;;;;;12.28;65.30;102339.03;5052966;28;20454;-71
2023/05/18 07:25:07;;;;;;;5.80;1.10;;;;;;;12.38;64.80;102336.34;5052588;28;20529;-69
2023/05/18 07:27:34;;;;;;;12.30;1.03;;;;;;;12.36;63.33;102337.72;5052585;28;20533;-70
2023/05/18 07:30:00;;;;;;;7.17;0.90;;;;;;;12.52;63.49;102336.63;5052801;28;20462;-70
2023/05/18 07:32:27;;;;;;;5.00;1.00;;;;;;;12.60;62.80;102338.81;5052541;28;20537;-69
2023/05/18 07:34:53;;;;;;;4.40;0.70;;;;;;;12.64;62.75;102330.94;5052863;28;20525;-69
2023/05/18 07:37:20;;;;;;;4.70;0.73;;;;;;;12.65;61.95;102334.47;5052492;28;20533;-68
2023/05/18 07:39:47;;;;;;;7.63;1.30;;;;;;;12.73;60.44;102329.28;5052741;28;20462;-69
2023/05/18 07:42:15;;;;;;;5.17;0.93;;;;;;;12.80;60.68;102331.75;5052664;28;20584;-68
2023/05/18 07:44:41;;;;;;;13.30;0.90;;;;;;;12.96;60.95;102329.81;5052468;28;20955;-67
2023/05/18 07:47:08;;;;;;;6.27;1.00;;;;;;;13.14;59.69;102324.59;5052767;28;20447;-67
2023/05/18 07:49:35;;;;;;;6.13;1.00;;;;;;;13.19;57.57;102337.38;5052572;28;21050;-69
2023/05/18 07:52:01;;;;;;;8.10;1.70;;;;;;;13.28;57.15;102332.22;5052719;28;20445;-72
2023/05/18 07:54:28;;;;;;;4.50;0.70;;;;;;;13.34;57.31;102329.22;5052346;28;20959;-72
2023/05/18 07:56:55;;;;;;;6.17;0.90;;;;;;;13.45;56.13;102335.44;5052610;28;20442;-67
2023/05/18 07:59:23;;;;;;;5.60;1.17;;;;;;;13.61;56.02;102334.31;5052498;28;20474;-66
2023/05/18 08:01:49;;;;;;;6.17;0.80;;;;;;;13.70;55.35;102340.00;5052203;28;20517;-66
2023/05/18 08:04:16;;;;;;;6.73;1.10;;;;;;;13.61;51.15;102338.94;5052578;28;20890;-68
2023/05/18 08:06:42;;;;;;;4.87;1.13;;;;;;;13.69;52.36;102338.38;5052305;28;20791;-68
2023/05/18 08:09:09;;;;;;;4.60;0.80;;;;;;;13.68;53.58;102339.47;5052486;28;20466;-71
2023/05/18 08:11:36;;;;;;;6.30;0.93;;;;;;;13.59;55.04;102341.97;5052407;28;21017;-73
2023/05/18 08:14:02;;;;;;;5.10;1.30;;;;;;;13.57;57.58;102337.88;5052185;28;21007;-74
2023/05/18 08:16:33;;;;;;;5.70;1.10;;;;;;;13.49;55.37;102341.16;5054518;28;20442;-72
2023/05/18 08:19:00;;;;;;;5.23;1.00;;;;;;;13.43;53.30;102345.81;5055944;28;20474;-69
2023/05/18 08:21:27;;;;;;;8.20;1.20;;;;;;;13.09;53.58;102353.75;5055877;28;20855;-71
2023/05/18 08:23:54;;;;;;;7.47;0.90;;;;;;;13.15;54.80;102352.66;5055614;28;20500;-71
2023/05/18 08:26:20;;;;;;;5.90;1.27;;;;;;;13.27;55.88;102344.22;5055907;28;20542;-71
2023/05/18 08:28:47;;;;;;;4.83;1.00;;;;;;;13.07;54.48;102350.50;5055905;28;20468;-71
2023/05/18 08:31:14;;;;;;;9.37;1.20;;;;;;;12.92;55.95;102353.22;5055468;28;20936;-71
2023/05/18 08:33:42;;;;;;;4.47;0.73;;;;;;;12.85;56.09;102354.31;5055711;28;20443;-70
2023/05/18 08:36:09;;;;;;;18.03;2.20;;;;;;;12.99;57.00;102361.91;5055785;28;20481;-71
2023/05/18 08:38:36;;;;;;;9.60;1.20;;;;;;;13.20;54.24;102358.09;5055705;28;20446;-70
2023/05/18 08:41:11;;;;;;;5.07;0.87;;;;;;;13.35;54.86;102341.75;5055583;28;20488;-72
2023/05/18 08:43:42;;;;;;;4.70;0.80;;;;;;;13.41;53.50;102349.88;5055583;28;20462;-71
2023/05/18 08:46:19;;;;;;;8.00;1.00;;;;;;;13.65;56.61;102345.47;5055528;28;20900;-71
2023/05/18 08:48:49;;;;;;;6.40;1.20;;;;;;;13.78;55.46;102344.88;5055144;28;20425;-69
2023/05/18 08:51:20;;;;;;;5.33;0.70;;;;;;;13.91;53.41;102338.00;5055623;28;20469;-70
2023/05/18 08:53:52;;;;;;;6.67;0.80;;;;;;;14.11;54.26;102329.69;5055438;28;20469;-72
2023/05/18 08:56:22;;;;;;;17.90;1.07;;;;;;;14.44;56.08;102335.50;5055337;28;20426;-72
2023/05/18 08:58:51;;;;;;;7.80;1.63;;;;;;;14.70;56.04;102333.41;5055202;28;20454;-72
2023/05/18 09:01:17;;;;;;;7.70;1.23;;;;;;;14.95;53.89;102337.00;5055156;28;21015;-71
2023/05/18 09:03:48;;;;;;;5.40;0.90;;;;;;;15.07;50.98;102345.63;5054857;28;20442;-72
2023/05/18 09:06:17;;;;;;;5.27;1.03;;;;;;;15.22;50.22;102341.91;5054887;28;20816;-71
2023/05/18 09:08:45;;;;;;;4.67;0.93;;;;;;;15.01;48.55;102349.53;5054887;28;20461;-71
2023/05/18 09:11:13;;;;;;;7.40;1.67;;;;;;;15.02;49.81;102340.22;5055133;28;20434;-71
2023/05/18 09:13:40;;;;;;;5.90;1.03;;;;;;;15.00;49.97;102347.88;5055137;28;20451;-71
2023/05/18 09:16:07;;;;;;;7.77;1.03;;;;;;;14.91;48.87;102344.94;5055021;28;20439;-71
2023/05/18 09:18:34;;;;;;;6.70;1.00;;;;;;;14.96;49.08;102339.44;5055050;28;20442;-71
2023/05/18 09:21:00;;;;;;;4.67;0.90;;;;;;;14.89;49.96;102338.97;5054822;28;20482;-70
2023/05/18 09:23:28;;;;;;;5.83;0.93;;;;;;;14.98;50.20;102350.09;5054914;28;20442;-71
2023/05/18 09:25:56;;;;;;;7.23;0.97;;;;;;;15.08;49.67;102336.31;5054216;28;20528;-71
2023/05/18 09:28:27;;;;;;;4.40;0.80;;;;;;;15.12;50.16;102338.19;5054358;28;20813;-71
2023/05/18 09:30:54;;;;;;;5.90;0.93;;;;;;;14.72;50.53;102336.66;5054424;28;20442;-71
2023/05/18 09:33:22;;;;;;;6.00;1.00;;;;;;;14.45;49.97;102339.84;5054625;28;20446;-71
2023/05/18 09:35:50;;;;;;;5.13;1.20;;;;;;;14.45;50.73;102328.13;5054809;28;20446;-71
2023/05/18 09:38:20;;;;;;;5.50;1.10;;;;;;;14.62;51.69;102328.56;5054761;28;20448;-71
2023/05/18 09:40:49;;;;;;;5.90;1.10;;;;;;;14.81;51.50;102324.03;5054259;28;20540;-70
2023/05/18 09:43:17;;;;;;;4.97;0.97;;;;;;;14.83;50.64;102326.47;5054373;28;20469;-71
2023/05/18 09:45:45;;;;;;;5.70;0.90;;;;;;;14.81;50.62;102317.75;5054155;28;20452;-71
2023/05/18 09:48:13;;;;;;;10.53;1.17;;;;;;;15.05;51.17;102317.78;5054261;28;20470;-71
2023/05/18 09:50:40;;;;;;;5.07;1.00;;;;;;;15.24;52.77;102318.69;5054199;28;20501;-70
2023/05/18 09:53:08;;;;;;;6.00;1.00;;;;;;;15.32;50.15;102326.25;5054270;28;20533;-71
2023/05/18 09:55:38;;;;;;;5.50;0.83;;;;;;;15.14;48.50;102321.53;5054192;28;20446;-71
2023/05/18 09:58:07;;;;;;;4.40;0.50;;;;;;;15.19;49.59;102324.22;5053855;28;20811;-72
2023/05/18 10:00:38;;;;;;;5.00;0.90;;;;;;;15.42;50.75;102329.97;5054011;28;20486;-71
2023/05/18 10:03:16;;;;;;;5.73;1.07;;;;;;;15.47;50.77;102330.72;5054030;28;20470;-72
2023/05/18 10:05:42;;;;;;;5.80;1.47;;;;;;;15.42;48.04;102319.88;5053745;28;20899;-72
2023/05/18 10:08:09;;;;;;;5.00;1.00;;;;;;;15.42;49.32;102313.59;5053799;28;20458;-72
2023/05/18 10:10:39;;;;;;;8.27;1.30;;;;;;;15.67;51.98;102307.84;5053490;28;20466;-71
2023/05/18 10:13:07;;;;;;;6.30;1.23;;;;;;;15.90;57.67;102303.44;5053588;28;21019;-72
2023/05/18 10:15:36;;;;;;;6.97;1.37;;;;;;;15.85;57.74;102298.84;5053599;28;20446;-72
2023/05/18 10:18:06;;;;;;;4.50;0.83;;;;;;;16.00;53.96;102305.22;5053468;28;20450;-72
2023/05/18 10:20:33;;;;;;;7.40;0.90;;;;;;;16.11;50.99;102301.22;5053750;28;20462;-71
2023/05/18 10:23:05;;;;;;;6.07;0.80;;;;;;;16.10;50.81;102297.66;5053673;28;20504;-72
2023/05/18 10:25:33;;;;;;;5.00;1.03;;;;;;;16.11;49.79;102309.41;5053755;28;20437;-72
2023/05/18 10:28:03;;;;;;;7.80;1.83;;;;;;;15.96;48.00;102304.16;5053625;28;20446;-72
2023/05/18 10:30:32;;;;;;;8.00;1.00;;;;;;;15.96;49.31;102294.06;5053651;28;20459;-72
2023/05/18 10:33:00;;;;;;;4.90;1.00;;;;;;;15.91;46.47;102302.31;5053240;28;20473;-72
2023/05/18 10:35:28;;;;;;;5.57;1.10;;;;;;;15.82;53.15;102296.72;5053519;28;20452;-72
2023/05/18 10:37:57;;;;;;;6.77;1.00;;;;;;;15.94;48.26;102290.81;5052725;28;21027;-72
2023/05/18 10:40:24;;;;;;;5.43;1.00;;;;;;;16.21;46.00;102295.59;5053376;28;20458;-72
2023/05/18 10:42:52;;;;;;;4.77;0.93;;;;;;;16.49;44.61;102284.75;5053317;28;20482;-72
2023/05/18 10:45:19;;;;;;;4.30;0.70;;;;;;;16.43;46.07;102297.72;5053314;28;20438;-72
2023/05/18 10:47:52;;;;;;;7.50;1.17;;;;;;;16.42;48.18;102279.66;5053237;28;20434;-72
2023/05/18 10:50:20;;;;;;;4.43;0.73;;;;;;;16.50;51.00;102283.66;5053098;28;20997;-71
2023/05/18 10:52:48;;;;;;;4.87;0.63;;;;;;;16.42;49.01;102290.59;5053365;28;20537;-72
2023/05/18 10:55:15;;;;;;;5.73;1.40;;;;;;;16.63;47.90;102285.59;5053297;28;20445;-71
2023/05/18 10:57:47;;;;;;;5.80;1.10;;;;;;;16.70;48.21;102282.50;5053403;28;20871;-72
2023/05/18 11:00:14;;;;;;;4.67;0.83;;;;;;;16.42;46.14;102279.66;5053200;28;20549;-72
2023/05/18 11:02:42;;;;;;;4.80;0.70;;;;;;;16.90;45.57;102272.00;5052872;28;20478;-71
2023/05/18 11:05:11;;;;;;;4.70;0.90;;;;;;;17.09;44.82;102279.34;5052995;28;20492;-72
2023/05/18 11:07:38;;;;;;;7.77;1.00;;;;;;;16.99;45.30;102283.06;5052925;28;20498;-71
2023/05/18 11:10:09;;;;;;;5.70;1.30;;;;;;;17.20;44.93;102280.75;5052947;28;20470;-72
2023/05/18 11:12:37;;;;;;;4.20;0.80;;;;;;;17.37;45.38;102280.16;5053162;28;20418;-72
2023/05/18 11:15:06;;;;;;;21.93;1.63;;;;;;;17.37;44.60;102282.88;5052815;28;20442;-72
2023/05/18 11:17:32;;;;;;;5.33;0.80;;;;;;;17.79;45.03;102276.25;5052845;28;20541;-72
2023/05/18 11:20:16;;;;;;;7.07;0.83;;;;;;;19.04;44.59;102282.78;5052887;28;20462;-72
2023/05/18 11:22:45;;;;;;;5.03;1.00;;;;;;;19.84;39.20;102282.69;5053005;28;20484;-72
2023/05/18 11:25:37;;;;;;;4.97;1.00;;;;;;;20.02;39.97;102275.25;5052524;28;20901;-72
2023/05/18 11:28:05;;;;;;;4.30;0.73;;;;;;;21.09;40.52;102282.66;5053013;28;20501;-72
2023/05/18 11:30:48;;;;;;;5.63;1.43;;;;;;;21.06;38.88;102286.88;5052888;28;20553;-72